Sign-in with your pilot id or email, or register

ICAO: LYBE Name / Country: Beograd / Surcin / Serbia
Latitude: 44.8184 Longitude: 20.3091
Total Arrivals:
Strict Standards: Non-static method AirportData::getarrflights() should not be called statically, assuming $this from incompatible context in /var/www/customers/vh-7192/web/home/phpvms/core/templates/airport_info.tpl on line 18
5
Total Departures:
Strict Standards: Non-static method AirportData::getdeptflights() should not be called statically, assuming $this from incompatible context in /var/www/customers/vh-7192/web/home/phpvms/core/templates/airport_info.tpl on line 21
4
Latest Arrival: MTA11P (LHBP-LYBE) Tibor Berces Latest Departure: MTA11P (LYBE-LHBP) Tibor Berces
Metar: LYBE 271000Z 01004KT 320V070 9999 SCT030 16/10 Q1010 NOSIG
More info

Charts for LYBE


NOTAM


Warning: file_get_contents(http://api.vateud.net/notams/LYBE.json): failed to open stream: Redirection limit reached, aborting in /var/www/customers/vh-7192/web/home/phpvms/core/common/NOTAMSData.class.php on line 18

Warning: Invalid argument supplied for foreach() in /var/www/customers/vh-7192/web/home/phpvms/core/common/NOTAMSData.class.php on line 22

Beograd / Surcin